createdAt,value
2022-11-16T00:01:38.975Z,121.77
2022-11-16T00:04:41.626Z,121.60
2022-11-16T00:07:44.094Z,114.28
2022-11-16T00:10:46.647Z,126.22
2022-11-16T00:13:57.492Z,113.20
2022-11-16T00:17:00.388Z,121.47
2022-11-16T00:20:02.954Z,119.60
2022-11-16T00:23:05.448Z,122.75
2022-11-16T00:26:09.935Z,112.45
2022-11-16T00:29:16.004Z,113.93
2022-11-16T00:32:18.423Z,120.77
2022-11-16T00:35:21.005Z,122.80
2022-11-16T00:38:23.923Z,115.68
2022-11-16T00:41:26.341Z,116.00
2022-11-16T00:44:30.295Z,120.80
2022-11-16T00:47:32.784Z,117.13
2022-11-16T00:50:35.623Z,121.80
2022-11-16T00:53:38.967Z,120.55
2022-11-16T00:56:42.671Z,119.68
2022-11-16T00:59:47.075Z,123.07
2022-11-16T01:02:49.593Z,125.07
2022-11-16T01:05:52.137Z,113.55
2022-11-16T01:08:54.537Z,121.95
2022-11-16T01:12:12.745Z,124.60
2022-11-16T01:15:18.727Z,121.60
2022-11-16T01:18:21.137Z,121.53
2022-11-16T01:21:24.163Z,121.07
2022-11-16T01:24:27.430Z,122.40
2022-11-16T01:27:29.933Z,123.45
2022-11-16T01:30:36.279Z,117.05
2022-11-16T01:33:42.761Z,117.87
2022-11-16T01:36:53.803Z,125.93
2022-11-16T01:39:56.713Z,120.38
2022-11-16T01:42:59.534Z,126.28
2022-11-16T01:46:03.370Z,121.03
2022-11-16T01:49:10.813Z,121.63
2022-11-16T01:52:16.738Z,122.47
2022-11-16T01:55:19.817Z,129.00
2022-11-16T01:58:37.574Z,126.68
2022-11-16T02:01:51.764Z,121.25
2022-11-16T02:04:57.058Z,116.73
2022-11-16T02:08:50.173Z,126.60
2022-11-16T02:12:09.253Z,113.47
2022-11-16T02:15:20.542Z,116.30
2022-11-16T02:18:38.371Z,116.10
2022-11-16T02:21:44.889Z,114.77
2022-11-16T02:25:00.337Z,117.43
2022-11-16T02:28:16.610Z,118.78
2022-11-16T02:31:28.160Z,110.80
2022-11-16T02:34:36.050Z,107.88
2022-11-16T02:37:43.835Z,104.80
2022-11-16T02:40:50.187Z,110.60
2022-11-16T02:44:02.453Z,104.97
2022-11-16T02:47:11.562Z,102.60
2022-11-16T02:50:18.686Z,113.18
2022-11-16T02:53:23.064Z,104.73
2022-11-16T02:56:27.370Z,101.80
2022-11-16T02:59:36.008Z,103.43
2022-11-16T03:02:48.153Z,101.72
2022-11-16T03:05:53.687Z,100.57
2022-11-16T03:09:01.868Z,100.30
2022-11-16T03:12:11.064Z,105.40
2022-11-16T03:15:13.856Z,101.15
2022-11-16T03:18:19.719Z,110.18
2022-11-16T03:21:36.906Z,108.43
2022-11-16T03:24:40.415Z,113.40
2022-11-16T03:27:49.922Z,122.22
2022-11-16T03:30:58.749Z,115.55
2022-11-16T03:34:10.470Z,116.18
2022-11-16T03:37:15.201Z,119.88
2022-11-16T03:40:19.247Z,113.10
2022-11-16T03:43:26.584Z,114.45
2022-11-16T03:46:30.889Z,115.65
2022-11-16T03:49:34.936Z,111.68
2022-11-16T03:52:38.383Z,117.03
2022-11-16T03:55:43.473Z,104.13
2022-11-16T03:58:49.771Z,105.93
2022-11-16T04:01:53.535Z,108.25
2022-11-16T04:05:17.164Z,101.03
2022-11-16T04:08:38.715Z,112.45
2022-11-16T04:12:00.363Z,110.67
2022-11-16T04:15:21.294Z,114.13
2022-11-16T04:18:42.973Z,108.93
2022-11-16T04:22:11.996Z,113.32
2022-11-16T04:25:18.291Z,109.80
2022-11-16T04:28:23.799Z,108.20
2022-11-16T04:31:48.357Z,116.35
2022-11-16T04:35:09.966Z,112.95
2022-11-16T04:38:14.425Z,111.93
2022-11-16T04:41:35.382Z,104.53
2022-11-16T04:44:56.638Z,100.37
2022-11-16T04:48:02.265Z,103.43
2022-11-16T04:51:07.620Z,99.60
2022-11-16T04:54:12.524Z,107.22
2022-11-16T04:57:15.650Z,96.75
2022-11-16T05:00:20.140Z,101.10
2022-11-16T05:03:23.064Z,99.78
2022-11-16T05:06:26.493Z,97.93
2022-11-16T05:09:30.847Z,97.85
2022-11-16T05:12:34.191Z,93.72
2022-11-16T05:15:39.166Z,87.70
2022-11-16T05:18:41.783Z,82.10
2022-11-16T05:21:44.812Z,87.93
2022-11-16T05:24:49.327Z,84.13
2022-11-16T05:27:51.957Z,87.60
2022-11-16T05:30:54.398Z,87.80
2022-11-16T05:33:59.118Z,85.57
2022-11-16T05:37:01.716Z,91.55
2022-11-16T05:40:08.126Z,91.68
2022-11-16T05:43:23.151Z,84.15
2022-11-16T05:46:37.010Z,85.73
2022-11-16T05:49:40.961Z,84.25
2022-11-16T05:52:43.794Z,85.97
2022-11-16T05:55:49.025Z,83.80
2022-11-16T05:58:53.747Z,91.38
2022-11-16T06:01:57.882Z,88.07
2022-11-16T06:05:02.071Z,87.72
2022-11-16T06:08:05.439Z,88.63
2022-11-16T06:11:10.716Z,85.55
2022-11-16T06:14:15.989Z,89.20
2022-11-16T06:17:19.193Z,97.73
2022-11-16T06:20:21.965Z,96.63
2022-11-16T06:23:27.508Z,85.80
2022-11-16T06:26:31.745Z,93.13
2022-11-16T06:29:36.277Z,79.68
2022-11-16T06:32:39.110Z,80.47
2022-11-16T06:35:43.443Z,87.07
2022-11-16T06:38:47.284Z,91.80
2022-11-16T06:41:51.773Z,77.15
2022-11-16T06:44:55.271Z,81.00
2022-11-16T06:48:02.900Z,81.70
2022-11-16T06:51:06.226Z,75.65
2022-11-16T06:54:08.988Z,87.47
2022-11-16T06:57:13.367Z,80.13
2022-11-16T07:00:39.878Z,90.65
2022-11-16T07:03:47.064Z,81.40
2022-11-16T07:06:49.688Z,82.10
2022-11-16T07:09:53.426Z,91.90
2022-11-16T07:13:01.961Z,85.93
2022-11-16T07:16:06.087Z,84.43
2022-11-16T07:19:10.169Z,90.43
2022-11-16T07:22:14.211Z,84.57
2022-11-16T07:25:21.150Z,80.82
2022-11-16T07:28:27.908Z,83.50
2022-11-16T07:31:31.344Z,92.78
2022-11-16T07:34:54.124Z,88.00
2022-11-16T07:37:56.762Z,85.78
2022-11-16T07:41:04.359Z,92.72
2022-11-16T07:44:12.328Z,85.20
2022-11-16T07:47:17.583Z,79.28
2022-11-16T07:50:20.224Z,87.73
2022-11-16T07:53:24.340Z,88.72
2022-11-16T07:56:27.372Z,91.20
2022-11-16T07:59:31.768Z,92.05
2022-11-16T08:02:35.231Z,89.07
2022-11-16T08:05:39.954Z,100.17
2022-11-16T08:08:44.465Z,102.30
2022-11-16T08:11:47.295Z,98.78
2022-11-16T08:14:51.448Z,101.70
2022-11-16T08:17:54.351Z,91.68
2022-11-16T08:20:58.835Z,102.40
2022-11-16T08:24:01.883Z,96.82
2022-11-16T08:27:15.340Z,99.75
2022-11-16T08:30:23.929Z,97.72
2022-11-16T08:33:29.193Z,98.07
2022-11-16T08:36:32.127Z,97.67
2022-11-16T08:39:35.551Z,97.97
2022-11-16T08:42:43.473Z,101.63
2022-11-16T08:46:04.419Z,101.32
2022-11-16T08:49:13.394Z,99.93
2022-11-16T08:52:18.350Z,92.90
2022-11-16T08:55:22.547Z,97.57
2022-11-16T08:58:25.506Z,90.97
2022-11-16T09:01:32.551Z,98.65
2022-11-16T09:04:37.288Z,87.45
2022-11-16T09:07:40.934Z,85.90
2022-11-16T09:10:44.111Z,88.88
2022-11-16T09:13:50.281Z,86.53
2022-11-16T09:16:57.105Z,85.60
2022-11-16T09:20:00.385Z,86.38
2022-11-16T09:23:03.591Z,82.60
2022-11-16T09:26:07.146Z,82.50
2022-11-16T09:29:12.729Z,85.03
2022-11-16T09:32:18.624Z,76.82
2022-11-16T09:35:21.448Z,84.45
2022-11-16T09:38:40.228Z,79.13
2022-11-16T09:42:06.651Z,78.47
2022-11-16T09:45:19.622Z,81.82
2022-11-16T09:48:25.069Z,76.80
2022-11-16T09:51:32.579Z,78.97
2022-11-16T09:54:42.583Z,81.53
2022-11-16T09:57:46.806Z,81.57
2022-11-16T10:00:56.830Z,85.00
2022-11-16T10:04:09.097Z,76.15
2022-11-16T10:07:15.882Z,75.30
2022-11-16T10:10:30.328Z,72.77
2022-11-16T10:13:49.722Z,76.05
2022-11-16T10:16:58.361Z,72.32
2022-11-16T10:20:16.851Z,67.00
2022-11-16T10:23:28.830Z,67.30
2022-11-16T10:26:38.545Z,73.93
2022-11-16T10:29:53.678Z,68.78
2022-11-16T10:33:00.411Z,60.67
2022-11-16T10:36:11.113Z,61.00
2022-11-16T10:39:16.455Z,62.88
2022-11-16T10:42:23.265Z,59.80
2022-11-16T10:45:32.601Z,56.05
2022-11-16T10:48:42.857Z,53.95
2022-11-16T10:51:46.926Z,58.13
2022-11-16T10:54:49.573Z,56.55
2022-11-16T10:57:58.350Z,56.17
2022-11-16T11:01:01.790Z,50.53
2022-11-16T11:04:17.389Z,58.58
2022-11-16T11:07:31.288Z,54.78
2022-11-16T11:10:35.898Z,58.25
2022-11-16T11:13:38.626Z,54.53
2022-11-16T11:16:42.055Z,60.17
2022-11-16T11:19:44.566Z,58.67
2022-11-16T11:22:53.500Z,53.05
2022-11-16T11:25:59.154Z,51.35
2022-11-16T11:29:07.421Z,52.17
2022-11-16T11:32:20.754Z,48.50
2022-11-16T11:35:34.699Z,45.15
2022-11-16T11:38:56.127Z,44.95
2022-11-16T11:42:05.684Z,44.90
2022-11-16T11:45:13.170Z,45.13
2022-11-16T11:48:29.712Z,49.55
2022-11-16T11:51:36.009Z,50.53
2022-11-16T11:54:46.062Z,50.20
2022-11-16T11:57:53.768Z,50.85
2022-11-16T12:01:23.758Z,52.53
2022-11-16T12:05:01.581Z,48.95
2022-11-16T12:08:20.291Z,50.33
2022-11-16T12:11:32.491Z,48.60
2022-11-16T12:14:51.350Z,47.50
2022-11-16T12:18:03.761Z,49.63
2022-11-16T12:21:12.816Z,51.33
2022-11-16T12:24:29.574Z,56.55
2022-11-16T12:27:46.138Z,56.75
2022-11-16T12:31:01.424Z,54.40
2022-11-16T12:34:15.685Z,51.87
2022-11-16T12:37:25.048Z,49.38
2022-11-16T12:40:35.889Z,56.25
2022-11-16T12:43:48.074Z,52.60
2022-11-16T12:46:58.574Z,51.83
2022-11-16T12:50:15.551Z,50.00
2022-11-16T12:53:37.972Z,49.25
2022-11-16T12:56:51.793Z,47.92
2022-11-16T13:00:06.983Z,47.25
2022-11-16T13:03:18.964Z,50.70
2022-11-16T13:06:29.018Z,49.20
2022-11-16T13:09:36.360Z,52.60
2022-11-16T13:12:39.514Z,51.15
2022-11-16T13:15:46.404Z,48.22
2022-11-16T13:18:49.569Z,49.35
2022-11-16T13:22:02.684Z,54.43
2022-11-16T13:25:18.615Z,49.88
2022-11-16T13:28:33.281Z,48.03
2022-11-16T13:31:41.629Z,48.60
2022-11-16T13:34:45.859Z,50.28
2022-11-16T13:37:49.400Z,50.47
2022-11-16T13:40:51.897Z,55.28
2022-11-16T13:43:54.946Z,54.13
2022-11-16T13:47:04.450Z,51.83
2022-11-16T13:50:18.456Z,53.58
2022-11-16T13:56:53.556Z,55.00
2022-11-16T14:00:09.796Z,53.83
2022-11-16T14:03:28.934Z,55.03
2022-11-16T14:06:56.700Z,66.53
2022-11-16T14:10:00.433Z,62.77
2022-11-16T14:13:04.564Z,63.78
2022-11-16T14:16:54.862Z,55.63
2022-11-16T14:19:59.179Z,73.65
2022-11-16T14:23:23.034Z,96.30
2022-11-16T14:26:37.308Z,68.17
2022-11-16T14:29:55.765Z,71.78
2022-11-16T14:33:01.751Z,68.72
2022-11-16T14:36:10.803Z,72.97
2022-11-16T14:39:26.490Z,72.57
2022-11-16T14:42:38.141Z,66.13
2022-11-16T14:45:56.175Z,62.47
2022-11-16T14:49:01.611Z,58.03
2022-11-16T14:52:08.296Z,61.67
2022-11-16T14:55:18.516Z,61.63
2022-11-16T14:58:23.010Z,62.20
2022-11-16T15:01:28.438Z,61.20
2022-11-16T15:04:31.325Z,56.17
2022-11-16T15:07:35.203Z,59.70
2022-11-16T15:10:49.545Z,63.35
2022-11-16T15:13:55.350Z,63.13
2022-11-16T15:16:59.970Z,73.35
2022-11-16T15:20:04.539Z,63.70
2022-11-16T15:23:14.887Z,67.10
2022-11-16T15:26:20.594Z,59.05
2022-11-16T15:29:24.630Z,61.70
2022-11-16T15:32:27.386Z,64.32
2022-11-16T15:35:31.859Z,64.05
2022-11-16T15:38:37.604Z,63.08
2022-11-16T15:41:40.817Z,61.00
2022-11-16T15:44:44.006Z,65.93
2022-11-16T15:47:47.442Z,78.20
2022-11-16T15:51:07.216Z,67.85
2022-11-16T15:54:21.033Z,76.43
2022-11-16T15:57:24.948Z,65.22
2022-11-16T16:00:28.269Z,67.83
2022-11-16T16:03:34.833Z,65.10
2022-11-16T16:06:46.640Z,84.07
2022-11-16T16:10:22.215Z,77.22
2022-11-16T16:13:50.609Z,65.53
2022-11-16T16:16:57.941Z,80.60
2022-11-16T16:20:02.689Z,90.32
2022-11-16T16:23:07.626Z,76.38
2022-11-16T16:26:11.486Z,73.03
2022-11-16T16:29:14.020Z,67.07
2022-11-16T16:32:24.335Z,69.47
2022-11-16T16:35:27.033Z,63.03
2022-11-16T16:38:29.776Z,61.35
2022-11-16T16:41:33.698Z,60.50
2022-11-16T16:44:36.509Z,65.32
2022-11-16T16:47:39.160Z,68.40
2022-11-16T16:50:42.101Z,61.75
2022-11-16T16:53:45.395Z,67.25
2022-11-16T16:56:49.346Z,71.43
2022-11-16T16:59:51.968Z,72.40
2022-11-16T17:02:54.370Z,77.67
2022-11-16T17:05:59.831Z,65.10
2022-11-16T17:09:02.577Z,54.22
2022-11-16T17:12:06.915Z,55.25
2022-11-16T17:15:13.841Z,53.55
2022-11-16T17:18:19.384Z,63.60
2022-11-16T17:21:22.181Z,63.10
2022-11-16T17:24:24.835Z,66.18
2022-11-16T17:27:28.928Z,68.63
2022-11-16T17:30:31.784Z,64.60
2022-11-16T17:33:34.766Z,64.67
2022-11-16T17:36:37.814Z,67.35
2022-11-16T17:39:40.727Z,61.50
2022-11-16T17:42:45.027Z,71.95
2022-11-16T17:45:47.677Z,72.97
2022-11-16T17:48:50.883Z,68.93
2022-11-16T17:51:54.097Z,79.22
2022-11-16T17:54:56.588Z,91.22
2022-11-16T17:58:00.532Z,93.75
2022-11-16T18:01:03.267Z,85.28
2022-11-16T18:04:06.205Z,59.37
2022-11-16T18:07:08.995Z,60.53
2022-11-16T18:10:18.882Z,64.90
2022-11-16T18:13:23.409Z,66.38
2022-11-16T18:16:27.888Z,67.97
2022-11-16T18:19:30.368Z,73.40
2022-11-16T18:22:33.045Z,71.25
2022-11-16T18:25:36.925Z,70.18
2022-11-16T18:28:41.439Z,62.53
2022-11-16T18:31:44.403Z,62.03
2022-11-16T18:34:47.175Z,72.07
2022-11-16T18:37:49.913Z,79.03
2022-11-16T18:41:03.752Z,91.43
2022-11-16T18:44:08.185Z,70.07
2022-11-16T18:47:10.913Z,61.53
2022-11-16T18:50:20.073Z,68.93
2022-11-16T18:53:25.642Z,74.47
2022-11-16T18:56:28.831Z,78.78
2022-11-16T18:59:32.976Z,71.63
2022-11-16T19:02:35.884Z,79.60
2022-11-16T19:05:38.837Z,80.67
2022-11-16T19:08:54.058Z,84.72
2022-11-16T19:11:58.319Z,93.97
2022-11-16T19:15:02.772Z,112.80
2022-11-16T19:18:20.904Z,99.72
2022-11-16T19:21:24.522Z,73.00
2022-11-16T19:24:27.360Z,75.72
2022-11-16T19:27:30.137Z,68.38
2022-11-16T19:30:53.224Z,83.20
2022-11-16T19:33:57.735Z,74.50
2022-11-16T19:37:00.480Z,65.27
2022-11-16T19:40:03.604Z,62.88
2022-11-16T19:43:07.584Z,60.33
2022-11-16T19:46:16.359Z,69.00
2022-11-16T19:49:20.666Z,68.15
2022-11-16T19:52:23.525Z,69.90
2022-11-16T19:55:26.687Z,75.25
2022-11-16T19:58:29.522Z,83.03
2022-11-16T20:01:33.648Z,81.03
2022-11-16T20:04:36.404Z,83.65
2022-11-16T20:07:39.305Z,80.77
2022-11-16T20:10:42.055Z,72.22
2022-11-16T20:13:44.740Z,70.50
2022-11-16T20:16:50.343Z,66.50
2022-11-16T20:19:52.976Z,63.75
2022-11-16T20:22:55.713Z,67.00
2022-11-16T20:25:58.400Z,70.00
2022-11-16T20:29:00.927Z,62.63
2022-11-16T20:32:05.316Z,64.93
2022-11-16T20:35:08.662Z,63.65
2022-11-16T20:38:11.421Z,61.70
2022-11-16T20:41:15.797Z,53.80
2022-11-16T20:44:21.981Z,50.08
2022-11-16T20:47:25.984Z,57.90
2022-11-16T20:50:28.479Z,67.82
2022-11-16T20:53:32.487Z,63.83
2022-11-16T20:56:35.826Z,63.95
2022-11-16T20:59:38.317Z,65.75
2022-11-16T21:02:42.634Z,60.78
2022-11-16T21:05:50.156Z,60.50
2022-11-16T21:08:53.739Z,56.87
2022-11-16T21:12:14.745Z,56.38
2022-11-16T21:15:17.178Z,58.00
2022-11-16T21:18:23.351Z,59.30
2022-11-16T21:21:28.129Z,52.55
2022-11-16T21:24:32.124Z,54.93
2022-11-16T21:27:34.596Z,54.20
2022-11-16T21:30:37.166Z,55.35
2022-11-16T21:33:40.961Z,55.33
2022-11-16T21:36:43.452Z,59.95
2022-11-16T21:39:47.031Z,50.23
2022-11-16T21:42:51.222Z,50.35
2022-11-16T21:46:01.933Z,47.40
2022-11-16T21:49:07.530Z,45.30
2022-11-16T21:52:10.060Z,52.00
2022-11-16T21:55:12.675Z,43.50
2022-11-16T21:58:15.108Z,42.53
2022-11-16T22:01:17.713Z,46.47
2022-11-16T22:04:40.202Z,41.97
2022-11-16T22:07:42.824Z,38.05
2022-11-16T22:10:49.674Z,35.80
2022-11-16T22:13:52.167Z,37.10
2022-11-16T22:16:54.652Z,32.80
2022-11-16T22:19:58.756Z,28.83
2022-11-16T22:23:01.208Z,19.50
2022-11-16T22:26:05.443Z,11.40
2022-11-16T22:29:07.902Z,12.55
2022-11-16T22:32:10.557Z,11.88
2022-11-16T22:35:14.459Z,10.43
2022-11-16T22:38:17.000Z,13.68
2022-11-16T22:41:20.217Z,10.30
2022-11-16T22:44:22.684Z,11.05
2022-11-16T22:47:25.135Z,10.23
2022-11-16T22:50:28.882Z,13.23
2022-11-16T22:53:31.493Z,13.10
2022-11-16T22:56:34.252Z,9.40
2022-11-16T22:59:36.786Z,9.13
2022-11-16T23:02:39.219Z,9.32
2022-11-16T23:05:43.043Z,10.88
2022-11-16T23:08:45.491Z,13.70
2022-11-16T23:12:06.415Z,10.37
2022-11-16T23:15:30.304Z,10.52
2022-11-16T23:18:33.407Z,10.35
2022-11-16T23:22:09.703Z,10.73
2022-11-16T23:25:30.809Z,12.75
2022-11-16T23:28:33.270Z,12.00
2022-11-16T23:31:35.904Z,10.88
2022-11-16T23:34:38.375Z,15.48
2022-11-16T23:37:52.757Z,15.65
2022-11-16T23:40:55.293Z,12.98
2022-11-16T23:43:57.775Z,13.73
2022-11-16T23:47:00.174Z,17.67
2022-11-16T23:50:02.914Z,16.30
2022-11-16T23:53:07.980Z,16.70
2022-11-16T23:56:10.460Z,18.50
2022-11-16T23:59:13.090Z,19.93
